createdAt,value
2022-09-06T00:09:19.683Z,11.60
2022-09-06T00:13:29.113Z,11.54
2022-09-06T00:16:58.807Z,11.52
2022-09-06T00:21:00.194Z,11.53
2022-09-06T00:24:36.806Z,11.52
2022-09-06T00:40:40.806Z,11.42
2022-09-06T00:44:30.522Z,11.35
2022-09-06T00:56:26.323Z,11.31
2022-09-06T01:12:19.906Z,11.27
2022-09-06T01:29:07.435Z,11.11
2022-09-06T01:33:19.969Z,11.04
2022-09-06T01:48:22.903Z,10.92
2022-09-06T01:52:03.217Z,10.87
2022-09-06T01:56:24.256Z,10.84
2022-09-06T02:04:53.975Z,10.83
2022-09-06T02:09:03.615Z,10.78
2022-09-06T02:12:20.079Z,10.77
2022-09-06T02:15:47.873Z,10.76
2022-09-06T02:24:31.140Z,10.81
2022-09-06T02:28:32.251Z,10.80
2022-09-06T02:40:58.891Z,10.77
2022-09-06T02:45:01.337Z,10.71
2022-09-06T02:49:00.193Z,10.67
2022-09-06T03:04:33.100Z,10.60
2022-09-06T03:08:22.397Z,10.55
2022-09-06T03:12:14.530Z,10.52
2022-09-06T03:28:18.813Z,10.43
2022-09-06T03:31:42.898Z,10.38
2022-09-06T03:35:53.436Z,10.34
2022-09-06T03:51:13.131Z,10.23
2022-09-06T03:54:32.851Z,10.18
2022-09-06T03:58:11.373Z,10.15
2022-09-06T04:13:05.034Z,10.03
2022-09-06T04:16:11.744Z,9.98
2022-09-06T04:19:56.473Z,9.96
2022-09-06T04:22:49.571Z,9.95
2022-09-06T04:25:51.773Z,9.94
2022-09-06T04:29:53.484Z,9.95
2022-09-06T04:33:25.898Z,9.94
2022-09-06T04:37:24.796Z,9.94
2022-09-06T04:40:29.283Z,9.93
2022-09-06T04:52:01.444Z,9.95
2022-09-06T04:55:37.255Z,9.94
2022-09-06T04:59:08.936Z,9.95
2022-09-06T05:10:52.100Z,10.09
2022-09-06T05:27:57.169Z,11.26
2022-09-06T05:30:52.987Z,11.46
2022-09-06T05:34:23.722Z,11.68
2022-09-06T05:38:33.412Z,11.94
2022-09-06T05:53:15.617Z,12.84
2022-09-06T05:57:26.579Z,13.03
2022-09-06T06:11:48.916Z,13.52
2022-09-06T06:14:44.569Z,13.67
2022-09-06T06:18:03.312Z,13.67
2022-09-06T06:21:28.679Z,13.48
2022-09-06T06:24:59.566Z,13.33
2022-09-06T06:28:51.728Z,13.22
2022-09-06T06:32:41.826Z,13.13
2022-09-06T06:47:05.895Z,13.08
2022-09-06T06:50:17.893Z,13.17
2022-09-06T06:54:10.732Z,13.31
2022-09-06T06:58:02.206Z,13.27
2022-09-06T07:09:16.903Z,14.00
2022-09-06T07:13:07.792Z,14.42
2022-09-06T07:35:13.013Z,15.14
2022-09-06T07:38:36.426Z,15.43
2022-09-06T07:41:54.718Z,15.42
2022-09-06T07:44:29.201Z,15.32
2022-09-06T08:04:41.201Z,15.89
2022-09-06T08:07:40.881Z,16.07
2022-09-06T08:10:42.288Z,16.16
2022-09-06T08:13:26.462Z,16.23
2022-09-06T08:16:22.891Z,16.18
2022-09-06T08:19:30.929Z,16.16
2022-09-06T08:22:18.269Z,16.15
2022-09-06T08:24:50.676Z,16.12
2022-09-06T08:28:06.068Z,16.13
2022-09-06T08:31:25.423Z,16.26
2022-09-06T08:34:39.187Z,16.49
2022-09-06T08:48:48.207Z,16.68
2022-09-06T08:52:09.684Z,16.74
2022-09-06T08:55:26.586Z,16.75
2022-09-06T08:59:20.062Z,16.90
2022-09-06T09:16:54.588Z,17.64
2022-09-06T09:20:08.778Z,17.69
2022-09-06T09:23:38.324Z,17.69
2022-09-06T09:27:24.855Z,17.69
2022-09-06T09:31:32.483Z,17.67
2022-09-06T09:35:01.390Z,17.76
2022-09-06T09:46:32.471Z,18.17
2022-09-06T09:49:13.041Z,18.15
2022-09-06T09:52:24.304Z,18.21
2022-09-06T09:55:42.479Z,18.12
2022-09-06T09:58:56.066Z,18.13
2022-09-06T10:22:06.621Z,18.31
2022-09-06T10:25:43.036Z,18.31
2022-09-06T10:29:19.327Z,18.29
2022-09-06T10:32:31.073Z,18.26
2022-09-06T10:48:14.874Z,18.23
2022-09-06T10:51:26.529Z,18.26
2022-09-06T10:55:06.574Z,18.35
2022-09-06T11:00:58.705Z,18.52
2022-09-06T11:04:12.474Z,18.53
2022-09-06T11:29:52.443Z,18.37
2022-09-06T11:33:41.951Z,18.24
2022-09-06T11:37:02.221Z,18.26
2022-09-06T11:43:56.827Z,18.25
2022-09-06T11:59:18.715Z,18.62
2022-09-06T12:10:07.548Z,18.56
2022-09-06T12:14:08.061Z,18.46
2022-09-06T12:17:45.701Z,18.51
2022-09-06T12:21:49.750Z,18.50
2022-09-06T12:57:09.386Z,18.57
2022-09-06T13:01:07.810Z,18.57
2022-09-06T13:04:21.894Z,18.60
2022-09-06T13:07:59.685Z,18.62
2022-09-06T13:11:31.774Z,18.64
2022-09-06T13:32:24.652Z,18.31
2022-09-06T13:36:13.124Z,18.23
2022-09-06T13:39:39.871Z,18.18
2022-09-06T14:02:04.080Z,18.02
2022-09-06T14:04:53.776Z,18.02
2022-09-06T14:08:38.802Z,18.06
2022-09-06T14:12:21.237Z,18.06
2022-09-06T14:15:13.498Z,18.05
2022-09-06T14:17:56.870Z,18.08
2022-09-06T14:21:14.143Z,18.09
2022-09-06T14:38:34.636Z,18.20
2022-09-06T14:41:37.630Z,18.11
2022-09-06T14:44:58.797Z,18.06
2022-09-06T14:47:57.862Z,18.03
2022-09-06T14:51:41.452Z,18.01
2022-09-06T14:54:45.106Z,17.98
2022-09-06T15:18:45.069Z,17.94
2022-09-06T15:21:39.602Z,17.89
2022-09-06T15:24:31.645Z,17.85
2022-09-06T15:27:20.660Z,17.81
2022-09-06T15:30:52.794Z,17.76
2022-09-06T15:34:06.387Z,17.73
2022-09-06T15:37:20.824Z,17.67
2022-09-06T15:40:10.029Z,17.64
2022-09-06T15:43:30.351Z,17.59
2022-09-06T15:47:14.629Z,17.55
2022-09-06T15:50:56.880Z,17.48
2022-09-06T15:54:45.662Z,17.39
2022-09-06T15:57:56.714Z,17.32
2022-09-06T16:35:57.921Z,16.64
2022-09-06T16:39:01.591Z,16.55
2022-09-06T16:42:53.085Z,16.50
2022-09-06T16:46:24.091Z,16.44
2022-09-06T16:49:12.253Z,16.40
2022-09-06T16:51:52.335Z,16.37
2022-09-06T16:54:37.351Z,16.30
2022-09-06T17:08:39.584Z,16.06
2022-09-06T17:12:04.244Z,15.96
2022-09-06T17:14:48.200Z,15.91
2022-09-06T17:17:44.173Z,15.86
2022-09-06T17:21:27.529Z,15.79
2022-09-06T17:24:09.076Z,15.71
2022-09-06T17:27:24.157Z,15.65
2022-09-06T17:31:15.715Z,15.59
2022-09-06T17:48:33.612Z,15.28
2022-09-06T17:52:07.730Z,15.19
2022-09-06T18:07:58.942Z,14.98
2022-09-06T18:11:50.773Z,14.91
2022-09-06T18:15:19.981Z,14.84
2022-09-06T18:30:54.797Z,14.63
2022-09-06T18:34:07.748Z,14.54
2022-09-06T18:37:57.124Z,14.48
2022-09-06T19:00:51.752Z,14.06
2022-09-06T19:04:53.956Z,13.96
2022-09-06T19:22:37.131Z,13.64
2022-09-06T19:26:49.537Z,13.55
2022-09-06T19:30:42.832Z,13.47
2022-09-06T19:34:44.400Z,13.40
2022-09-06T19:59:12.801Z,13.03
2022-09-06T20:02:58.069Z,12.96
2022-09-06T20:15:02.237Z,12.78
2022-09-06T20:18:59.369Z,12.71
2022-09-06T20:22:51.694Z,12.63
2022-09-06T20:37:56.089Z,12.41
2022-09-06T20:41:59.141Z,12.31
2022-09-06T20:45:03.463Z,12.24
2022-09-06T20:48:04.306Z,12.18
2022-09-06T21:00:38.083Z,11.99
2022-09-06T21:04:40.568Z,11.91
2022-09-06T21:23:40.074Z,11.64
2022-09-06T21:27:13.068Z,11.57
2022-09-06T21:30:43.265Z,11.51
2022-09-06T21:43:19.972Z,11.44
2022-09-06T21:55:29.373Z,11.33
2022-09-06T21:58:55.911Z,11.29
2022-09-06T22:02:23.010Z,11.25
2022-09-06T22:21:12.144Z,11.10
2022-09-06T22:24:53.262Z,11.04
2022-09-06T22:28:35.916Z,11.01
2022-09-06T22:32:16.152Z,10.98
2022-09-06T22:44:43.581Z,10.94
2022-09-06T22:56:40.545Z,10.81
2022-09-06T23:00:20.966Z,10.75
2022-09-06T23:14:40.142Z,10.58
2022-09-06T23:18:26.863Z,10.51
2022-09-06T23:22:36.820Z,10.46
2022-09-06T23:38:12.861Z,10.34
2022-09-06T23:41:55.530Z,10.24
2022-09-06T23:45:02.800Z,10.21
2022-09-06T23:48:35.467Z,10.16
2022-09-06T23:52:05.198Z,10.11
